createdAt,value
2022-09-24T00:01:55.000Z,8
2022-09-24T00:04:40.000Z,6.7
2022-09-24T00:07:25.000Z,7.7
2022-09-24T00:10:09.000Z,8
2022-09-24T00:12:54.000Z,7
2022-09-24T00:15:39.000Z,7.3
2022-09-24T00:18:23.000Z,6
2022-09-24T00:21:08.000Z,7.5
2022-09-24T00:22:26.000Z,9.9
2022-09-24T00:23:52.000Z,9.5
2022-09-24T00:26:37.000Z,9.5
2022-09-24T00:29:22.000Z,20.6
2022-09-24T00:32:06.000Z,22.6
2022-09-24T00:34:51.000Z,7.4
2022-09-24T00:37:36.000Z,8.6
2022-09-24T00:40:20.000Z,7.8
2022-09-24T00:43:05.000Z,8.2
2022-09-24T00:45:50.000Z,9.9
2022-09-24T00:48:34.000Z,9
2022-09-24T00:49:52.000Z,8.9
2022-09-24T00:51:19.000Z,7.1
2022-09-24T00:54:04.000Z,9.3
2022-09-24T00:56:48.000Z,5.4
2022-09-24T00:59:33.000Z,6.7
2022-09-24T01:02:17.000Z,9.6
2022-09-24T01:05:02.000Z,8.5
2022-09-24T01:07:47.000Z,9.8
2022-09-24T01:10:31.000Z,10
2022-09-24T01:13:16.000Z,10.9
2022-09-24T01:16:01.000Z,11
2022-09-24T01:17:18.000Z,8.8
2022-09-24T01:18:45.000Z,10.5
2022-09-24T01:21:30.000Z,10.3
2022-09-24T01:24:15.000Z,8.4
2022-09-24T01:26:59.000Z,10.4
2022-09-24T01:29:44.000Z,10.9
2022-09-24T01:32:28.000Z,9.1
2022-09-24T01:35:13.000Z,8.8
2022-09-24T01:37:58.000Z,8.9
2022-09-24T01:40:42.000Z,8.6
2022-09-24T01:43:27.000Z,7.7
2022-09-24T01:44:45.000Z,9
2022-09-24T01:46:12.000Z,7.5
2022-09-24T01:48:56.000Z,9
2022-09-24T01:51:41.000Z,10
2022-09-24T01:54:26.000Z,8.8
2022-09-24T01:57:10.000Z,11
2022-09-24T01:59:55.000Z,13.2
2022-09-24T02:02:40.000Z,16.4
2022-09-24T02:05:24.000Z,11.8
2022-09-24T02:08:09.000Z,17.6
2022-09-24T02:10:53.000Z,24.1
2022-09-24T02:12:11.000Z,21.6
2022-09-24T02:13:38.000Z,26.6
2022-09-24T02:16:23.000Z,28.4
2022-09-24T02:19:07.000Z,27
2022-09-24T02:21:52.000Z,22.6
2022-09-24T02:24:37.000Z,25.7
2022-09-24T02:27:21.000Z,34.7
2022-09-24T02:30:06.000Z,21.4
2022-09-24T02:32:51.000Z,28.3
2022-09-24T02:35:35.000Z,30.5
2022-09-24T02:38:20.000Z,32.1
2022-09-24T02:39:38.000Z,39.8
2022-09-24T02:41:04.000Z,31.3
2022-09-24T02:43:49.000Z,18
2022-09-24T02:46:34.000Z,22.1
2022-09-24T02:49:18.000Z,20.9
2022-09-24T02:52:03.000Z,16.6
2022-09-24T02:54:48.000Z,25.1
2022-09-24T02:57:32.000Z,27.5
2022-09-24T03:00:17.000Z,18
2022-09-24T03:03:02.000Z,28.5
2022-09-24T03:05:46.000Z,15.8
2022-09-24T03:07:04.000Z,14
2022-09-24T03:08:31.000Z,25.4
2022-09-24T03:11:16.000Z,25.4
2022-09-24T03:14:00.000Z,16
2022-09-24T03:16:45.000Z,27
2022-09-24T03:19:29.000Z,33.1
2022-09-24T03:22:14.000Z,28.9
2022-09-24T03:24:59.000Z,17.9
2022-09-24T03:27:43.000Z,28.1
2022-09-24T03:30:28.000Z,38.3
2022-09-24T03:33:13.000Z,27.4
2022-09-24T03:34:31.000Z,29.3
2022-09-24T03:35:57.000Z,32.5
2022-09-24T03:38:42.000Z,37.7
2022-09-24T03:41:27.000Z,32
2022-09-24T03:44:11.000Z,39.2
2022-09-24T03:46:56.000Z,30.8
2022-09-24T03:49:41.000Z,27.1
2022-09-24T03:52:25.000Z,36.4
2022-09-24T03:55:10.000Z,33.5
2022-09-24T03:57:54.000Z,34.9
2022-09-24T04:00:39.000Z,28.7
2022-09-24T04:01:57.000Z,21.3
2022-09-24T04:03:24.000Z,28
2022-09-24T04:06:08.000Z,28.5
2022-09-24T04:08:53.000Z,31.4
2022-09-24T04:11:38.000Z,38.7
2022-09-24T04:14:22.000Z,28.8
2022-09-24T04:17:07.000Z,29
2022-09-24T04:19:52.000Z,33.5
2022-09-24T04:22:36.000Z,42.7
2022-09-24T04:25:21.000Z,37.1
2022-09-24T04:28:05.000Z,35.4
2022-09-24T04:29:23.000Z,34.7
2022-09-24T04:30:50.000Z,39.3
2022-09-24T04:33:35.000Z,35.5
2022-09-24T04:36:19.000Z,34.9
2022-09-24T04:39:04.000Z,43.3
2022-09-24T04:41:49.000Z,34.4
2022-09-24T04:44:33.000Z,43.9
2022-09-24T04:47:18.000Z,38.7
2022-09-24T04:50:03.000Z,36.7
2022-09-24T04:55:32.000Z,38.2
2022-09-24T04:56:50.000Z,27.8
2022-09-24T04:58:17.000Z,37.7
2022-09-24T05:01:01.000Z,40.5
2022-09-24T05:03:46.000Z,37
2022-09-24T05:06:30.000Z,28.2
2022-09-24T05:09:15.000Z,41.4
2022-09-24T05:12:00.000Z,39.6
2022-09-24T05:14:44.000Z,44.7
2022-09-24T05:17:29.000Z,31.7
2022-09-24T05:20:14.000Z,42.1
2022-09-24T05:22:58.000Z,31.4
2022-09-24T05:24:16.000Z,36.3
2022-09-24T05:25:43.000Z,39.6
2022-09-24T05:28:28.000Z,29.5
2022-09-24T05:31:12.000Z,27.3
2022-09-24T05:33:57.000Z,28.4
2022-09-24T05:36:41.000Z,22.5
2022-09-24T05:39:26.000Z,26.7
2022-09-24T05:42:11.000Z,30.3
2022-09-24T05:44:55.000Z,49.7
2022-09-24T05:47:40.000Z,44
2022-09-24T05:50:25.000Z,39.5
2022-09-24T05:51:43.000Z,29.8
2022-09-24T05:53:09.000Z,46.3
2022-09-24T05:55:54.000Z,52.2
2022-09-24T05:58:39.000Z,45.3
2022-09-24T06:01:23.000Z,33.3
2022-09-24T06:04:08.000Z,25.1
2022-09-24T06:06:53.000Z,36.2
2022-09-24T06:09:37.000Z,51.2
2022-09-24T06:12:22.000Z,31.9
2022-09-24T06:15:06.000Z,39.7
2022-09-24T06:17:51.000Z,48.7
2022-09-24T06:19:09.000Z,54
2022-09-24T06:20:52.000Z,49.1
2022-09-24T06:23:37.000Z,40.2
2022-09-24T06:26:21.000Z,57.7
2022-09-24T06:29:06.000Z,56.9
2022-09-24T06:31:51.000Z,66.6
2022-09-24T06:34:35.000Z,61.2
2022-09-24T06:37:20.000Z,59.3
2022-09-24T06:40:05.000Z,54.7
2022-09-24T06:42:49.000Z,59.3
2022-09-24T06:45:34.000Z,52.4
2022-09-24T06:46:52.000Z,55.3
2022-09-24T06:48:19.000Z,61.9
2022-09-24T06:51:03.000Z,60.2
2022-09-24T06:53:48.000Z,60.2
2022-09-24T06:56:32.000Z,37.4
2022-09-24T06:59:17.000Z,29.6
2022-09-24T07:02:02.000Z,49.6
2022-09-24T07:04:46.000Z,51.1
2022-09-24T07:07:31.000Z,48.2
2022-09-24T07:10:16.000Z,52.2
2022-09-24T07:13:00.000Z,55.3
2022-09-24T07:14:18.000Z,60.2
2022-09-24T07:15:45.000Z,60.2
2022-09-24T07:18:30.000Z,56.6
2022-09-24T07:21:14.000Z,57.1
2022-09-24T07:23:59.000Z,55.6
2022-09-24T07:26:43.000Z,64.4
2022-09-24T07:29:28.000Z,58.3
2022-09-24T07:32:13.000Z,66.4
2022-09-24T07:34:57.000Z,59.9
2022-09-24T07:37:42.000Z,61.7
2022-09-24T07:40:27.000Z,61.1
2022-09-24T07:41:44.000Z,59
2022-09-24T07:43:11.000Z,61.5
2022-09-24T07:45:56.000Z,61.8
2022-09-24T07:48:41.000Z,58.3
2022-09-24T07:51:25.000Z,55.2
2022-09-24T07:54:10.000Z,41.6
2022-09-24T07:56:55.000Z,50
2022-09-24T07:59:39.000Z,43.4
2022-09-24T08:02:24.000Z,42.6
2022-09-24T08:05:08.000Z,47.3
2022-09-24T08:07:53.000Z,52.7
2022-09-24T08:09:11.000Z,56
2022-09-24T08:10:38.000Z,55.2
2022-09-24T08:13:22.000Z,49.3
2022-09-24T08:16:07.000Z,58.8
2022-09-24T08:18:52.000Z,62.4
2022-09-24T08:21:36.000Z,49
2022-09-24T08:24:21.000Z,53.8
2022-09-24T08:27:06.000Z,52.6
2022-09-24T08:29:50.000Z,48
2022-09-24T08:32:35.000Z,49.2
2022-09-24T08:35:19.000Z,52.5
2022-09-24T08:36:37.000Z,53.9
2022-09-24T08:38:04.000Z,52.1
2022-09-24T08:40:49.000Z,46.5
2022-09-24T08:43:33.000Z,48
2022-09-24T08:46:18.000Z,50.9
2022-09-24T08:49:03.000Z,55.8
2022-09-24T08:51:47.000Z,55.3
2022-09-24T08:54:32.000Z,53.9
2022-09-24T08:57:17.000Z,57.2
2022-09-24T09:00:01.000Z,42.7
2022-09-24T09:02:46.000Z,59.1
2022-09-24T09:04:04.000Z,52.2
2022-09-24T09:05:31.000Z,56.4
2022-09-24T09:08:15.000Z,51.1
2022-09-24T09:11:00.000Z,55.8
2022-09-24T09:13:44.000Z,53.2
2022-09-24T09:16:29.000Z,53.8
2022-09-24T09:19:14.000Z,45.9
2022-09-24T09:21:58.000Z,44.7
2022-09-24T09:24:43.000Z,51.6
2022-09-24T09:27:28.000Z,49.4
2022-09-24T09:30:12.000Z,47.2
2022-09-24T09:31:30.000Z,51
2022-09-24T09:32:57.000Z,51.1
2022-09-24T09:35:42.000Z,44.9
2022-09-24T09:38:26.000Z,46.1
2022-09-24T09:41:11.000Z,44.3
2022-09-24T09:43:56.000Z,43
2022-09-24T09:46:40.000Z,42.9
2022-09-24T09:49:25.000Z,43.6
2022-09-24T09:52:09.000Z,41.9
2022-09-24T09:54:54.000Z,34.1
2022-09-24T09:57:39.000Z,34.7
2022-09-24T09:58:57.000Z,28.1
2022-09-24T10:00:23.000Z,30.7
2022-09-24T10:03:08.000Z,29.4
2022-09-24T10:05:53.000Z,29.6
2022-09-24T10:08:37.000Z,24.2
2022-09-24T10:11:22.000Z,23.7
2022-09-24T10:14:07.000Z,24.5
2022-09-24T10:16:51.000Z,21.4
2022-09-24T10:19:36.000Z,21.3
2022-09-24T10:22:20.000Z,20
2022-09-24T10:25:05.000Z,18.1
2022-09-24T10:26:23.000Z,15.3
2022-09-24T10:27:50.000Z,18.3
2022-09-24T10:30:34.000Z,17.2
2022-09-24T10:33:19.000Z,16.7
2022-09-24T10:36:04.000Z,18.1
2022-09-24T10:38:48.000Z,15.2
2022-09-24T10:41:33.000Z,17.7
2022-09-24T10:49:47.000Z,15.8
2022-09-24T10:52:32.000Z,13.7
2022-09-24T10:53:49.000Z,13.3
2022-09-24T10:55:16.000Z,14.1
2022-09-24T10:58:01.000Z,14.2
2022-09-24T11:00:45.000Z,13.8
2022-09-24T11:03:30.000Z,11.9
2022-09-24T11:06:15.000Z,11.9
2022-09-24T11:08:59.000Z,10.6
2022-09-24T11:11:44.000Z,11.7
2022-09-24T11:14:29.000Z,11.3
2022-09-24T11:17:13.000Z,11
2022-09-24T11:19:58.000Z,10.6
2022-09-24T11:21:16.000Z,9.6
2022-09-24T11:22:43.000Z,10
2022-09-24T11:25:27.000Z,9.8
2022-09-24T11:28:12.000Z,9.4
2022-09-24T11:33:41.000Z,9.5
2022-09-24T11:36:26.000Z,8.9
2022-09-24T11:39:10.000Z,10.2
2022-09-24T11:44:40.000Z,8
2022-09-24T11:47:24.000Z,8.5
2022-09-24T11:48:42.000Z,8.5
2022-09-24T11:50:09.000Z,8.6
2022-09-24T11:52:54.000Z,8.6
2022-09-24T11:58:23.000Z,8.2
2022-09-24T12:01:08.000Z,8.4
2022-09-24T12:03:52.000Z,8.5
2022-09-24T12:06:37.000Z,8.5
2022-09-24T12:09:21.000Z,7.5
2022-09-24T12:12:06.000Z,7.3
2022-09-24T12:14:51.000Z,7.5
2022-09-24T12:16:09.000Z,7.6
2022-09-24T12:17:52.000Z,7.7
2022-09-24T12:20:36.000Z,7.6
2022-09-24T12:23:21.000Z,8
2022-09-24T12:26:06.000Z,7.3
2022-09-24T12:28:50.000Z,7.8
2022-09-24T12:34:20.000Z,7.3
2022-09-24T12:37:04.000Z,6.9
2022-09-24T12:39:49.000Z,6.8
2022-09-24T12:42:34.000Z,6.6
2022-09-24T12:43:51.000Z,6.7
2022-09-24T12:45:18.000Z,6.7
2022-09-24T12:48:03.000Z,6.9
2022-09-24T12:53:32.000Z,6.2
2022-09-24T12:56:17.000Z,6.8
2022-09-24T12:59:01.000Z,6.5
2022-09-24T13:01:46.000Z,5.8
2022-09-24T13:04:31.000Z,6.2
2022-09-24T13:07:15.000Z,6.6
2022-09-24T13:10:00.000Z,5.6
2022-09-24T13:11:18.000Z,6.7
2022-09-24T13:15:29.000Z,6
2022-09-24T13:18:14.000Z,6
2022-09-24T13:23:43.000Z,7.1
2022-09-24T13:26:28.000Z,6
2022-09-24T13:32:13.000Z,6.3
2022-09-24T13:34:58.000Z,6
2022-09-24T13:39:00.000Z,5.4
2022-09-24T13:40:27.000Z,5.7
2022-09-24T13:43:12.000Z,5.6
2022-09-24T13:45:57.000Z,6.1
2022-09-24T13:48:41.000Z,6.2
2022-09-24T13:51:26.000Z,5.8
2022-09-24T13:54:11.000Z,6
2022-09-24T13:56:55.000Z,6
2022-09-24T13:59:40.000Z,6.4
2022-09-24T14:02:24.000Z,6.7
2022-09-24T14:05:09.000Z,6.4
2022-09-24T14:06:27.000Z,5.7
2022-09-24T14:07:54.000Z,5.7
2022-09-24T14:10:38.000Z,5.5
2022-09-24T14:13:23.000Z,5.5
2022-09-24T14:16:08.000Z,4.8
2022-09-24T14:18:52.000Z,4.7
2022-09-24T14:21:37.000Z,5.6
2022-09-24T14:24:22.000Z,5.4
2022-09-24T14:27:06.000Z,5.2
2022-09-24T14:29:51.000Z,5.3
2022-09-24T14:32:36.000Z,5.1
2022-09-24T14:33:54.000Z,4.9
2022-09-24T14:35:20.000Z,4.8
2022-09-24T14:38:05.000Z,5
2022-09-24T14:46:35.000Z,4.7
2022-09-24T14:52:04.000Z,4.6
2022-09-24T14:54:49.000Z,5.3
2022-09-24T14:57:34.000Z,5
2022-09-24T15:00:18.000Z,4.5
2022-09-24T15:03:03.000Z,4.8
2022-09-24T15:04:21.000Z,5.1
2022-09-24T15:05:48.000Z,5
2022-09-24T15:08:32.000Z,5.1
2022-09-24T15:11:17.000Z,5.4
2022-09-24T15:16:46.000Z,5.4
2022-09-24T15:22:15.000Z,5.5
2022-09-24T15:25:00.000Z,5.7
2022-09-24T15:27:45.000Z,6.2
2022-09-24T15:30:29.000Z,5.7
2022-09-24T15:31:47.000Z,6.2
2022-09-24T15:33:14.000Z,6
2022-09-24T15:35:59.000Z,6.2
2022-09-24T15:38:43.000Z,5.9
2022-09-24T15:41:28.000Z,5.7
2022-09-24T15:44:13.000Z,5.9
2022-09-24T15:46:57.000Z,6.1
2022-09-24T15:52:26.000Z,5.5
2022-09-24T16:00:40.000Z,4.3
2022-09-24T16:03:25.000Z,4.4
2022-09-24T16:06:10.000Z,4.5
2022-09-24T16:08:54.000Z,4.5
2022-09-24T16:11:39.000Z,4
2022-09-24T16:14:24.000Z,4.3
2022-09-24T16:17:25.000Z,4.6
2022-09-24T16:20:09.000Z,4.4
2022-09-24T16:25:39.000Z,4.8
2022-09-24T16:26:56.000Z,4.5
2022-09-24T16:28:23.000Z,4.3
2022-09-24T16:31:08.000Z,4.5
2022-09-24T16:33:52.000Z,4.4
2022-09-24T16:36:37.000Z,4.6
2022-09-24T16:39:22.000Z,4.7
2022-09-24T16:42:06.000Z,4.2
2022-09-24T16:44:51.000Z,4.4
2022-09-24T16:47:36.000Z,4.5
2022-09-24T16:50:20.000Z,4.4
2022-09-24T16:53:05.000Z,4.7
2022-09-24T16:54:23.000Z,4.9
2022-09-24T16:55:50.000Z,4.5
2022-09-24T16:58:34.000Z,4.4
2022-09-24T17:01:19.000Z,4.8
2022-09-24T17:04:04.000Z,4.7
2022-09-24T17:06:48.000Z,4.8
2022-09-24T17:09:33.000Z,4.8
2022-09-24T17:12:18.000Z,4.2
2022-09-24T17:15:18.000Z,4.8
2022-09-24T17:18:03.000Z,4.4
2022-09-24T17:20:48.000Z,4.5
2022-09-24T17:22:05.000Z,4.9
2022-09-24T17:23:32.000Z,4.5
2022-09-24T17:26:17.000Z,4.6
2022-09-24T17:29:02.000Z,4.4
2022-09-24T17:31:46.000Z,4.4
2022-09-24T17:34:31.000Z,4.3
2022-09-24T17:37:16.000Z,4.9
2022-09-24T17:40:00.000Z,4.5
2022-09-24T17:43:01.000Z,4.6
2022-09-24T17:45:46.000Z,5.1
2022-09-24T17:48:31.000Z,4.8
2022-09-24T17:49:48.000Z,5.3
2022-09-24T17:51:15.000Z,4.7
2022-09-24T17:54:00.000Z,4.8
2022-09-24T17:56:44.000Z,5.2
2022-09-24T17:59:29.000Z,5.7
2022-09-24T18:02:14.000Z,5.3
2022-09-24T18:04:58.000Z,5.4
2022-09-24T18:07:43.000Z,4.8
2022-09-24T18:10:28.000Z,5.1
2022-09-24T18:13:12.000Z,4.8
2022-09-24T18:15:57.000Z,4.7
2022-09-24T18:17:15.000Z,5.2
2022-09-24T18:18:42.000Z,5.3
2022-09-24T18:24:11.000Z,5.4
2022-09-24T18:26:55.000Z,5.7
2022-09-24T18:29:40.000Z,6.2
2022-09-24T18:32:25.000Z,5.5
2022-09-24T18:35:09.000Z,6
2022-09-24T18:37:54.000Z,5.7
2022-09-24T18:40:39.000Z,5.5
2022-09-24T18:43:23.000Z,5.3
2022-09-24T18:44:41.000Z,5.6
2022-09-24T18:46:08.000Z,5.7
2022-09-24T18:48:53.000Z,5.4
2022-09-24T18:51:37.000Z,5.8
2022-09-24T18:54:22.000Z,5.6
2022-09-24T18:57:07.000Z,5.3
2022-09-24T18:59:51.000Z,5.4
2022-09-24T19:02:36.000Z,6.6
2022-09-24T19:05:20.000Z,5.7
2022-09-24T19:08:05.000Z,6.1
2022-09-24T19:10:50.000Z,6.4
2022-09-24T19:12:08.000Z,6.4
2022-09-24T19:13:34.000Z,6.8
2022-09-24T19:16:19.000Z,6.6
2022-09-24T19:19:04.000Z,6.6
2022-09-24T19:21:48.000Z,7.2
2022-09-24T19:24:33.000Z,6.9
2022-09-24T19:27:18.000Z,6.1
2022-09-24T19:30:02.000Z,7.1
2022-09-24T19:32:47.000Z,7.3
2022-09-24T19:35:32.000Z,5.8
2022-09-24T19:38:16.000Z,5.9
2022-09-24T19:39:34.000Z,6.4
2022-09-24T19:41:01.000Z,6.8
2022-09-24T19:43:45.000Z,6.7
2022-09-24T19:46:30.000Z,6.6
2022-09-24T19:49:15.000Z,7.2
2022-09-24T19:51:59.000Z,7.5
2022-09-24T19:54:44.000Z,7.3
2022-09-24T19:57:29.000Z,6.3
2022-09-24T20:00:13.000Z,7
2022-09-24T20:02:58.000Z,7.4
2022-09-24T20:05:43.000Z,7.5
2022-09-24T20:07:00.000Z,7.4
2022-09-24T20:08:27.000Z,7.7
2022-09-24T20:11:12.000Z,5.6
2022-09-24T20:13:56.000Z,7.5
2022-09-24T20:16:41.000Z,7.2
2022-09-24T20:19:26.000Z,7.4
2022-09-24T20:22:10.000Z,8.1
2022-09-24T20:24:55.000Z,8.6
2022-09-24T20:27:40.000Z,8.9
2022-09-24T20:30:24.000Z,8
2022-09-24T20:33:09.000Z,7.9
2022-09-24T20:34:27.000Z,9
2022-09-24T20:35:54.000Z,8.7
2022-09-24T20:38:38.000Z,9.2
2022-09-24T20:41:23.000Z,7.8
2022-09-24T20:44:08.000Z,9.7
2022-09-24T20:49:37.000Z,10.4
2022-09-24T20:52:21.000Z,11.1
2022-09-24T20:55:06.000Z,11.2
2022-09-24T20:57:51.000Z,12.4
2022-09-24T21:00:35.000Z,9.1
2022-09-24T21:01:53.000Z,9.5
2022-09-24T21:03:20.000Z,12.2
2022-09-24T21:06:05.000Z,11.4
2022-09-24T21:08:49.000Z,11.5
2022-09-24T21:11:34.000Z,12.2
2022-09-24T21:14:19.000Z,11.7
2022-09-24T21:17:03.000Z,10.3
2022-09-24T21:19:48.000Z,12.8
2022-09-24T21:22:32.000Z,11.1
2022-09-24T21:28:02.000Z,12.1
2022-09-24T21:29:20.000Z,11.7
2022-09-24T21:30:46.000Z,14.6
2022-09-24T21:33:31.000Z,13.4
2022-09-24T21:36:16.000Z,14.7
2022-09-24T21:39:00.000Z,16.1
2022-09-24T21:41:45.000Z,13.4
2022-09-24T21:44:30.000Z,15.6
2022-09-24T21:47:14.000Z,13.7
2022-09-24T21:49:59.000Z,15.1
2022-09-24T21:52:44.000Z,15.9
2022-09-24T21:55:28.000Z,12.9
2022-09-24T21:56:46.000Z,13.7
2022-09-24T21:58:13.000Z,12.3
2022-09-24T22:00:57.000Z,13
2022-09-24T22:03:42.000Z,13
2022-09-24T22:06:27.000Z,12.5
2022-09-24T22:09:11.000Z,10.6
2022-09-24T22:11:56.000Z,10.8
2022-09-24T22:14:41.000Z,11.5
2022-09-24T22:17:25.000Z,8.8
2022-09-24T22:20:10.000Z,9.4
2022-09-24T22:22:55.000Z,9.5
2022-09-24T22:24:12.000Z,9.1
2022-09-24T22:25:39.000Z,9.3
2022-09-24T22:28:24.000Z,8.8
2022-09-24T22:31:09.000Z,8.6
2022-09-24T22:33:53.000Z,8
2022-09-24T22:36:38.000Z,8
2022-09-24T22:39:22.000Z,8.8
2022-09-24T22:42:07.000Z,7.7
2022-09-24T22:44:52.000Z,8.2
2022-09-24T22:47:36.000Z,7.8
2022-09-24T22:50:21.000Z,7.3
2022-09-24T22:53:06.000Z,7.2
2022-09-24T22:55:50.000Z,6.9
2022-09-24T22:58:35.000Z,6.9
2022-09-24T23:01:20.000Z,6.8
2022-09-24T23:04:21.000Z,6.4
2022-09-24T23:07:05.000Z,7.5
2022-09-24T23:09:50.000Z,6.5
2022-09-24T23:12:34.000Z,6
2022-09-24T23:15:19.000Z,6.7
2022-09-24T23:18:04.000Z,6.8
2022-09-24T23:19:21.000Z,5.1
2022-09-24T23:20:48.000Z,5.2
2022-09-24T23:23:33.000Z,5.3
2022-09-24T23:26:18.000Z,4.7
2022-09-24T23:29:02.000Z,6.2
2022-09-24T23:31:47.000Z,4.9
2022-09-24T23:34:32.000Z,6.3
2022-09-24T23:37:16.000Z,5.7
2022-09-24T23:40:01.000Z,4.8
2022-09-24T23:42:46.000Z,4.2
2022-09-24T23:45:30.000Z,4.2
2022-09-24T23:46:48.000Z,3.8
2022-09-24T23:48:15.000Z,3.5
2022-09-24T23:50:59.000Z,3.7
2022-09-24T23:53:44.000Z,4.1
2022-09-24T23:56:29.000Z,3.5
2022-09-24T23:59:13.000Z,3.6
